METAR

ENBN 211720Z 29022G33KT 260V320 4000 SHGSSN FEW006 SCT012CB BKN024 01/M01 Q1005

ENMS 211720Z 34012KT 9999 VCSH FEW020 SCT035 02/M05 Q1002 RMK WIND 412FT 25015G26KT 200V290

ENNM 211650Z 26025G44KT 9999 VCSH FEW018CB SCT025 BKN045 04/M02 Q1008

ENOL 211720Z 30027KT 9999 FEW010TCU BKN030 04/M00 Q1013 TEMPO 29035G45KT 4000 SHRASNGS BKN012CB

ENST 211720Z 29017G28KT 260V320 9999 VCSH FEW012CB FEW025 SCT035 02/M04 Q1003 RMK WIND 300FT 30023G34KT

ENVA 211720Z 26027KT 9999 -RASN SCT011 BKN020 02/01 Q1012 TEMPO 28028G38KT 3000 SHSNRA BKN014CB RMK WIND 670FT 27029G45KT



TAF

TAF TAF AMD ENVA 2116/2212 27025KT 9999 -SHRA FEW015 BKN030 TEMPO 2116/2209 28032G45KT 2000 SHRASN BKN008 BKN020CB BECMG 2206/2209 27015G25KT